createdAt,value
2017-05-07T00:00:14.351Z,13.40
2017-05-07T00:02:43.770Z,13.40
2017-05-07T00:05:12.852Z,13.40
2017-05-07T00:07:41.927Z,13.50
2017-05-07T00:10:11.042Z,13.50
2017-05-07T00:12:40.098Z,13.50
2017-05-07T00:15:09.388Z,13.50
2017-05-07T00:17:39.216Z,13.50
2017-05-07T00:20:08.305Z,13.50
2017-05-07T00:22:38.143Z,13.40
2017-05-07T00:25:07.230Z,13.50
2017-05-07T00:27:36.349Z,13.50
2017-05-07T00:30:05.430Z,13.50
2017-05-07T00:32:34.553Z,13.60
2017-05-07T00:35:03.631Z,13.60
2017-05-07T00:37:32.840Z,13.60
2017-05-07T00:40:01.906Z,13.50
2017-05-07T00:42:30.986Z,13.50
2017-05-07T00:45:00.087Z,13.50
2017-05-07T00:47:29.160Z,13.40
2017-05-07T00:49:59.233Z,13.40
2017-05-07T00:52:28.315Z,13.40
2017-05-07T00:54:57.399Z,13.40
2017-05-07T00:57:26.491Z,13.30
2017-05-07T00:59:55.574Z,13.30
2017-05-07T01:02:24.683Z,13.20
2017-05-07T01:04:53.763Z,13.20
2017-05-07T01:07:23.612Z,13.20
2017-05-07T01:09:52.698Z,13.20
2017-05-07T01:12:21.867Z,13.20
2017-05-07T01:14:50.909Z,13.30
2017-05-07T01:17:20.400Z,13.30
2017-05-07T01:19:49.446Z,13.30
2017-05-07T01:22:18.515Z,13.40
2017-05-07T01:24:47.625Z,13.40
2017-05-07T01:27:16.708Z,13.40
2017-05-07T01:29:45.918Z,13.30
2017-05-07T01:32:15.011Z,13.30
2017-05-07T01:34:44.100Z,13.10
2017-05-07T01:37:13.197Z,13.00
2017-05-07T01:39:42.264Z,12.90
2017-05-07T01:42:11.372Z,12.90
2017-05-07T01:44:40.448Z,12.90
2017-05-07T01:47:09.671Z,12.90
2017-05-07T01:49:38.836Z,12.80
2017-05-07T01:52:07.907Z,12.80
2017-05-07T01:54:37.769Z,12.70
2017-05-07T01:57:06.807Z,12.80
2017-05-07T01:59:35.927Z,12.80
2017-05-07T02:02:05.272Z,12.80
2017-05-07T02:04:34.376Z,12.80
2017-05-07T02:07:03.459Z,12.80
2017-05-07T02:09:33.607Z,12.80
2017-05-07T02:12:03.431Z,12.90
2017-05-07T02:14:32.527Z,13.00
2017-05-07T02:17:01.614Z,13.00
2017-05-07T02:19:30.707Z,13.10
2017-05-07T02:21:59.950Z,13.00
2017-05-07T02:24:29.025Z,13.00
2017-05-07T02:26:58.135Z,12.90
2017-05-07T02:29:27.227Z,12.90
2017-05-07T02:31:56.369Z,12.90
2017-05-07T02:34:25.445Z,12.90
2017-05-07T02:36:54.803Z,12.90
2017-05-07T02:39:23.896Z,13.00
2017-05-07T02:41:53.071Z,13.00
2017-05-07T02:44:22.207Z,13.00
2017-05-07T02:46:51.293Z,13.00
2017-05-07T02:49:20.432Z,12.90
2017-05-07T02:51:50.270Z,12.80
2017-05-07T02:54:20.209Z,12.80
2017-05-07T02:56:49.273Z,12.80
2017-05-07T02:59:19.079Z,12.70
2017-05-07T03:01:48.198Z,12.80
2017-05-07T03:04:17.299Z,12.70
2017-05-07T03:06:46.400Z,12.60
2017-05-07T03:09:15.482Z,12.60
2017-05-07T03:11:44.587Z,12.60
2017-05-07T03:14:13.695Z,12.50
2017-05-07T03:16:42.807Z,12.50
2017-05-07T03:19:11.892Z,12.50
2017-05-07T03:21:41.367Z,12.40
2017-05-07T03:24:10.457Z,12.40
2017-05-07T03:26:39.538Z,12.50
2017-05-07T03:29:08.639Z,12.50
2017-05-07T03:31:37.723Z,12.40
2017-05-07T03:34:06.816Z,12.40
2017-05-07T03:36:36.631Z,12.40
2017-05-07T03:39:06.596Z,12.40
2017-05-07T03:41:35.675Z,12.40
2017-05-07T03:44:04.759Z,12.40
2017-05-07T03:46:33.999Z,12.30
2017-05-07T03:49:03.082Z,12.30
2017-05-07T03:51:32.378Z,12.30
2017-05-07T03:54:01.474Z,12.30
2017-05-07T03:56:30.571Z,12.30
2017-05-07T03:58:59.643Z,12.30
2017-05-07T04:01:28.730Z,12.30
2017-05-07T04:03:57.823Z,12.30
2017-05-07T04:06:26.926Z,12.30
2017-05-07T04:08:56.008Z,12.30
2017-05-07T04:11:25.527Z,12.30
2017-05-07T04:13:54.603Z,12.30
2017-05-07T04:16:23.690Z,12.40
2017-05-07T04:18:52.792Z,12.40
2017-05-07T04:21:21.879Z,12.50
2017-05-07T04:23:51.718Z,12.40
2017-05-07T04:26:20.831Z,12.50
2017-05-07T04:28:50.019Z,12.60
2017-05-07T04:31:19.104Z,12.60
2017-05-07T04:33:48.191Z,12.60
2017-05-07T04:36:17.287Z,12.70
2017-05-07T04:38:46.372Z,12.80
2017-05-07T04:41:15.480Z,12.90
2017-05-07T04:43:44.551Z,12.90
2017-05-07T04:46:13.986Z,13.00
2017-05-07T04:48:43.057Z,13.10
2017-05-07T04:51:12.863Z,13.10
2017-05-07T04:53:41.991Z,13.30
2017-05-07T04:56:11.070Z,13.40
2017-05-07T04:58:40.679Z,13.40
2017-05-07T05:01:09.743Z,13.50
2017-05-07T05:03:38.814Z,13.50
2017-05-07T05:06:07.919Z,13.60
2017-05-07T05:08:37.002Z,13.70
2017-05-07T05:11:06.111Z,13.70
2017-05-07T05:13:35.194Z,13.80
2017-05-07T05:16:04.651Z,13.80
2017-05-07T05:18:33.718Z,13.80
2017-05-07T05:21:18.599Z,13.90
2017-05-07T05:24:03.263Z,13.90
2017-05-07T05:26:54.692Z,14.00
2017-05-07T05:29:30.545Z,14.00
2017-05-07T05:32:00.347Z,14.10
2017-05-07T05:34:29.434Z,14.20
2017-05-07T05:36:58.495Z,14.10
2017-05-07T05:39:28.445Z,14.10
2017-05-07T05:41:57.559Z,14.20
2017-05-07T05:44:26.651Z,14.20
2017-05-07T05:46:55.874Z,14.30
2017-05-07T05:49:24.995Z,14.40
2017-05-07T05:51:54.062Z,14.60
2017-05-07T05:54:23.156Z,14.50
2017-05-07T05:56:52.228Z,14.60
2017-05-07T05:59:21.514Z,14.60
2017-05-07T06:01:50.591Z,14.70
2017-05-07T06:04:19.684Z,14.80
2017-05-07T06:06:48.957Z,14.90
2017-05-07T06:09:18.026Z,15.00
2017-05-07T06:11:47.099Z,15.10
2017-05-07T06:14:16.193Z,15.30
2017-05-07T06:16:45.255Z,15.50
2017-05-07T06:19:15.391Z,15.60
2017-05-07T06:21:44.506Z,15.70
2017-05-07T06:24:13.578Z,15.80
2017-05-07T06:26:43.112Z,15.90
2017-05-07T06:29:12.199Z,16.00
2017-05-07T06:31:41.310Z,16.10
2017-05-07T06:34:10.575Z,16.10
2017-05-07T06:36:39.650Z,16.20
2017-05-07T06:39:08.730Z,16.40
2017-05-07T06:41:37.819Z,16.50
2017-05-07T06:44:06.919Z,16.60
2017-05-07T06:46:35.995Z,16.80
2017-05-07T06:49:05.057Z,17.10
2017-05-07T06:51:34.264Z,17.20
2017-05-07T06:54:03.332Z,17.40
2017-05-07T06:56:32.411Z,17.60
2017-05-07T06:59:01.550Z,17.70
2017-05-07T07:01:30.661Z,17.70
2017-05-07T07:03:59.875Z,17.90
2017-05-07T07:06:28.943Z,18.10
2017-05-07T07:08:58.012Z,18.20
2017-05-07T07:11:27.299Z,18.30
2017-05-07T07:13:56.371Z,18.40
2017-05-07T07:16:26.215Z,18.50
2017-05-07T07:18:55.519Z,18.70
2017-05-07T07:21:25.408Z,18.80
2017-05-07T07:23:54.518Z,19.00
2017-05-07T07:26:23.722Z,19.10
2017-05-07T07:28:52.811Z,19.20
2017-05-07T07:31:21.896Z,19.10
2017-05-07T07:33:51.349Z,19.20
2017-05-07T07:36:21.361Z,19.10
2017-05-07T07:38:50.514Z,19.30
2017-05-07T07:41:19.703Z,19.40
2017-05-07T07:43:49.503Z,19.50
2017-05-07T07:46:18.688Z,19.70
2017-05-07T07:48:47.780Z,19.80
2017-05-07T07:51:16.896Z,19.80
2017-05-07T07:53:46.005Z,19.90
2017-05-07T07:56:15.234Z,19.80
2017-05-07T07:58:45.550Z,19.90
2017-05-07T08:01:14.644Z,20.10
2017-05-07T08:03:43.714Z,20.30
2017-05-07T08:06:13.299Z,20.00
2017-05-07T08:08:42.410Z,20.00
2017-05-07T08:11:12.435Z,19.80
2017-05-07T08:13:42.431Z,19.70
2017-05-07T08:16:12.267Z,19.70
2017-05-07T08:18:41.517Z,19.80
2017-05-07T08:21:10.586Z,19.80
2017-05-07T08:23:39.716Z,19.80
2017-05-07T08:26:08.854Z,19.60
2017-05-07T08:28:37.951Z,19.70
2017-05-07T08:31:07.172Z,19.70
2017-05-07T08:33:36.255Z,19.90
2017-05-07T08:36:05.316Z,20.00
2017-05-07T08:38:34.522Z,20.00
2017-05-07T08:41:03.661Z,19.90
2017-05-07T08:43:32.758Z,19.80
2017-05-07T08:46:01.966Z,19.70
2017-05-07T08:48:32.042Z,19.60
2017-05-07T08:51:01.171Z,19.40
2017-05-07T08:53:30.264Z,19.40
2017-05-07T08:55:59.336Z,19.10
2017-05-07T08:58:28.824Z,18.80
2017-05-07T09:00:57.906Z,18.70
2017-05-07T09:03:26.986Z,18.60
2017-05-07T09:05:57.286Z,18.60
2017-05-07T09:08:26.358Z,18.70
2017-05-07T09:10:55.626Z,18.90
2017-05-07T09:16:31.312Z,19.30
2017-05-07T09:19:07.274Z,19.60
2017-05-07T09:21:36.555Z,19.40
2017-05-07T09:24:05.753Z,18.70
2017-05-07T09:26:34.811Z,18.40
2017-05-07T09:29:03.901Z,18.00
2017-05-07T09:31:32.970Z,17.90
2017-05-07T09:34:02.066Z,17.80
2017-05-07T09:36:31.135Z,17.90
2017-05-07T09:39:00.327Z,18.10
2017-05-07T09:41:29.387Z,18.50
2017-05-07T09:43:59.196Z,18.60
2017-05-07T09:46:28.279Z,18.80
2017-05-07T09:48:57.357Z,19.00
2017-05-07T09:51:26.644Z,19.00
2017-05-07T09:53:55.714Z,19.10
2017-05-07T09:56:24.790Z,19.30
2017-05-07T09:58:54.629Z,19.40
2017-05-07T10:01:23.820Z,19.40
2017-05-07T10:03:52.919Z,19.30
2017-05-07T10:06:22.135Z,19.00
2017-05-07T10:08:51.588Z,18.90
2017-05-07T10:11:21.462Z,18.90
2017-05-07T10:13:50.556Z,18.90
2017-05-07T10:16:19.646Z,19.00
2017-05-07T10:18:48.806Z,19.30
2017-05-07T10:21:18.618Z,19.10
2017-05-07T10:23:47.687Z,18.90
2017-05-07T10:26:17.217Z,18.80
2017-05-07T10:28:46.295Z,18.90
2017-05-07T10:31:15.539Z,19.20
2017-05-07T10:33:44.642Z,19.70
2017-05-07T10:36:14.639Z,20.30
2017-05-07T10:38:43.719Z,20.90
2017-05-07T10:41:12.787Z,21.00
2017-05-07T10:43:42.967Z,20.90
2017-05-07T10:46:12.039Z,20.30
2017-05-07T10:48:41.125Z,20.00
2017-05-07T10:51:10.211Z,20.00
2017-05-07T10:53:39.299Z,19.90
2017-05-07T10:56:08.402Z,20.00
2017-05-07T10:58:37.495Z,20.30
2017-05-07T11:01:07.643Z,20.40
2017-05-07T11:03:36.739Z,20.60
2017-05-07T11:06:05.836Z,20.70
2017-05-07T11:08:35.722Z,21.00
2017-05-07T11:11:04.951Z,21.50
2017-05-07T11:13:34.177Z,21.70
2017-05-07T11:16:03.453Z,21.60
2017-05-07T11:18:32.543Z,21.10
2017-05-07T11:21:02.549Z,20.60
2017-05-07T11:23:31.624Z,20.40
2017-05-07T11:26:01.888Z,20.20
2017-05-07T11:28:32.599Z,20.10
2017-05-07T11:31:01.874Z,20.30
2017-05-07T11:33:31.020Z,20.20
2017-05-07T11:36:00.117Z,20.00
2017-05-07T11:38:29.355Z,20.00
2017-05-07T11:40:58.463Z,20.00
2017-05-07T11:43:27.560Z,20.00
2017-05-07T11:45:56.645Z,19.80
2017-05-07T11:48:25.748Z,19.80
2017-05-07T11:50:54.859Z,20.10
2017-05-07T11:53:23.958Z,20.50
2017-05-07T11:55:53.246Z,20.50
2017-05-07T11:58:22.351Z,20.60
2017-05-07T12:00:51.462Z,20.50
2017-05-07T12:03:20.612Z,20.60
2017-05-07T12:05:49.718Z,20.80
2017-05-07T12:08:18.982Z,20.90
2017-05-07T12:10:48.896Z,21.20
2017-05-07T12:13:18.007Z,21.60
2017-05-07T12:15:47.153Z,21.50
2017-05-07T12:18:16.387Z,21.40
2017-05-07T12:20:46.237Z,21.10
2017-05-07T12:23:15.339Z,21.10
2017-05-07T12:25:44.434Z,21.20
2017-05-07T12:28:13.659Z,21.20
2017-05-07T12:30:42.770Z,21.40
2017-05-07T12:33:11.882Z,21.50
2017-05-07T12:35:41.045Z,21.60
2017-05-07T12:38:10.121Z,21.70
2017-05-07T12:40:39.230Z,21.60
2017-05-07T12:43:08.296Z,21.50
2017-05-07T12:45:37.502Z,21.50
2017-05-07T12:48:06.563Z,21.30
2017-05-07T12:50:36.372Z,20.40
2017-05-07T12:53:05.471Z,19.80
2017-05-07T12:55:34.543Z,19.70
2017-05-07T12:58:04.074Z,19.60
2017-05-07T13:00:33.146Z,19.60
2017-05-07T13:03:02.977Z,19.60
2017-05-07T13:05:32.071Z,19.50
2017-05-07T13:08:01.154Z,19.50
2017-05-07T13:10:30.984Z,19.40
2017-05-07T13:13:00.055Z,19.40
2017-05-07T13:15:29.883Z,19.10
2017-05-07T13:17:58.978Z,19.10
2017-05-07T13:20:28.299Z,19.10
2017-05-07T13:22:57.391Z,18.90
2017-05-07T13:25:26.473Z,18.80
2017-05-07T13:27:55.599Z,18.80
2017-05-07T13:30:24.817Z,18.80
2017-05-07T13:32:54.820Z,18.80
2017-05-07T13:35:24.544Z,18.90
2017-05-07T13:37:54.064Z,18.80
2017-05-07T13:40:23.630Z,18.60
2017-05-07T13:42:52.998Z,18.70
2017-05-07T13:45:22.175Z,18.70
2017-05-07T13:47:51.928Z,18.70
2017-05-07T13:50:21.122Z,18.70
2017-05-07T13:52:50.299Z,18.80
2017-05-07T13:55:19.731Z,18.90
2017-05-07T13:57:48.878Z,19.00
2017-05-07T14:00:18.177Z,19.00
2017-05-07T14:02:47.311Z,18.90
2017-05-07T14:05:16.523Z,18.90
2017-05-07T14:07:45.853Z,18.90
2017-05-07T14:10:16.378Z,18.90
2017-05-07T14:12:46.174Z,19.00
2017-05-07T14:15:16.055Z,18.90
2017-05-07T14:17:45.228Z,19.00
2017-05-07T14:20:14.441Z,18.80
2017-05-07T14:22:43.669Z,18.70
2017-05-07T14:25:13.648Z,18.70
2017-05-07T14:27:42.718Z,18.80
2017-05-07T14:30:11.963Z,18.80
2017-05-07T14:32:41.054Z,18.70
2017-05-07T14:35:10.208Z,18.80
2017-05-07T14:37:40.090Z,18.70
2017-05-07T14:40:09.651Z,18.80
2017-05-07T14:42:39.013Z,18.90
2017-05-07T14:45:09.294Z,18.90
2017-05-07T14:47:38.565Z,19.00
2017-05-07T14:50:07.992Z,19.10
2017-05-07T14:52:37.145Z,19.20
2017-05-07T14:55:06.590Z,19.40
2017-05-07T14:57:41.943Z,19.50
2017-05-07T15:00:11.977Z,19.50
2017-05-07T15:02:41.159Z,19.70
2017-05-07T15:05:10.423Z,19.70
2017-05-07T15:07:39.903Z,19.90
2017-05-07T15:10:09.183Z,19.90
2017-05-07T15:12:38.317Z,19.90
2017-05-07T15:15:07.536Z,20.00
2017-05-07T15:17:36.866Z,20.20
2017-05-07T15:20:06.137Z,20.50
2017-05-07T15:22:35.375Z,20.50
2017-05-07T15:25:04.767Z,20.70
2017-05-07T15:27:34.038Z,20.70
2017-05-07T15:30:04.846Z,20.70
2017-05-07T15:32:34.189Z,20.80
2017-05-07T15:35:04.814Z,20.70
2017-05-07T15:37:35.720Z,20.70
2017-05-07T15:40:06.244Z,20.60
2017-05-07T15:42:35.580Z,20.60
2017-05-07T15:45:04.718Z,20.60
2017-05-07T15:47:34.129Z,20.60
2017-05-07T15:50:03.624Z,20.60
2017-05-07T15:52:34.628Z,20.60
2017-05-07T15:55:06.227Z,20.90
2017-05-07T15:57:36.191Z,20.90
2017-05-07T16:00:05.532Z,20.90
2017-05-07T16:02:35.091Z,20.70
2017-05-07T16:05:04.473Z,20.50
2017-05-07T16:07:33.985Z,20.40
2017-05-07T16:10:04.060Z,20.40
2017-05-07T16:12:33.522Z,20.40
2017-05-07T16:15:02.697Z,20.50
2017-05-07T16:20:49.247Z,20.50
2017-05-07T16:23:41.110Z,20.50
2017-05-07T16:29:31.355Z,20.30
2017-05-07T16:32:15.696Z,20.20
2017-05-07T16:34:45.401Z,20.30
2017-05-07T16:37:15.221Z,20.30
2017-05-07T16:39:45.119Z,20.20
2017-05-07T16:42:27.090Z,20.30
2017-05-07T16:44:56.733Z,20.20
2017-05-07T16:47:29.239Z,20.30
2017-05-07T16:49:59.390Z,20.20
2017-05-07T16:52:29.841Z,20.20
2017-05-07T16:54:59.295Z,20.20
2017-05-07T16:57:30.778Z,20.20
2017-05-07T17:00:01.106Z,20.10
2017-05-07T17:02:37.179Z,19.90
2017-05-07T17:05:06.795Z,19.90
2017-05-07T17:07:36.260Z,19.80
2017-05-07T17:10:06.252Z,19.70
2017-05-07T17:12:35.330Z,19.80
2017-05-07T17:15:04.644Z,19.70
2017-05-07T17:17:33.723Z,19.70
2017-05-07T17:20:02.812Z,19.70
2017-05-07T17:22:31.986Z,19.40
2017-05-07T17:25:01.059Z,19.40
2017-05-07T17:27:30.927Z,19.30
2017-05-07T17:30:00.009Z,19.30
2017-05-07T17:32:29.106Z,19.20
2017-05-07T17:34:58.175Z,19.10
2017-05-07T17:37:27.398Z,19.10
2017-05-07T17:39:56.500Z,19.10
2017-05-07T17:42:25.579Z,19.10
2017-05-07T17:44:54.712Z,19.10
2017-05-07T17:47:23.836Z,19.00
2017-05-07T17:49:53.102Z,18.90
2017-05-07T17:52:22.219Z,18.80
2017-05-07T17:54:51.328Z,18.80
2017-05-07T17:57:20.411Z,18.70
2017-05-07T17:59:49.546Z,18.60
2017-05-07T18:02:18.638Z,18.50
2017-05-07T18:04:48.619Z,18.40
2017-05-07T18:07:18.474Z,18.30
2017-05-07T18:09:47.581Z,18.30
2017-05-07T18:12:16.697Z,18.30
2017-05-07T18:14:46.563Z,18.20
2017-05-07T18:17:15.675Z,18.20
2017-05-07T18:19:44.810Z,18.20
2017-05-07T18:22:13.918Z,18.20
2017-05-07T18:24:43.007Z,18.10
2017-05-07T18:27:12.129Z,18.00
2017-05-07T18:29:41.239Z,18.00
2017-05-07T18:32:11.042Z,17.90
2017-05-07T18:34:40.138Z,17.90
2017-05-07T18:37:09.238Z,17.80
2017-05-07T18:39:39.499Z,17.70
2017-05-07T18:42:08.560Z,17.70
2017-05-07T18:44:37.686Z,17.70
2017-05-07T18:47:06.815Z,17.60
2017-05-07T18:49:35.955Z,17.60
2017-05-07T18:52:05.467Z,17.60
2017-05-07T18:54:34.552Z,17.60
2017-05-07T18:57:04.389Z,17.50
2017-05-07T18:59:33.603Z,17.50
2017-05-07T19:02:02.682Z,17.50
2017-05-07T19:04:31.751Z,17.50
2017-05-07T19:07:00.969Z,17.40
2017-05-07T19:09:30.044Z,17.40
2017-05-07T19:11:59.119Z,17.30
2017-05-07T19:14:28.244Z,17.30
2017-05-07T19:16:57.316Z,17.20
2017-05-07T19:19:26.558Z,17.10
2017-05-07T19:21:54.927Z,17.10
2017-05-07T19:24:24.004Z,17.00
2017-05-07T19:26:53.215Z,16.90
2017-05-07T19:29:22.306Z,16.80
2017-05-07T19:31:51.440Z,16.70
2017-05-07T19:34:20.899Z,16.50
2017-05-07T19:36:50.099Z,16.40
2017-05-07T19:39:19.175Z,16.30
2017-05-07T19:41:49.011Z,16.10
2017-05-07T19:44:18.111Z,16.20
2017-05-07T19:46:47.403Z,16.10
2017-05-07T19:49:16.486Z,16.00
2017-05-07T19:51:45.588Z,15.90
2017-05-07T19:54:14.698Z,15.90
2017-05-07T19:56:43.778Z,15.80
2017-05-07T19:59:12.879Z,15.70
2017-05-07T20:01:42.007Z,15.70
2017-05-07T20:04:11.128Z,15.60
2017-05-07T20:06:40.994Z,15.50
2017-05-07T20:09:10.071Z,15.50
2017-05-07T20:11:39.171Z,15.40
2017-05-07T20:14:08.243Z,15.40
2017-05-07T20:16:37.346Z,15.30
2017-05-07T20:19:06.422Z,15.20
2017-05-07T20:21:36.454Z,15.10
2017-05-07T20:24:05.548Z,15.10
2017-05-07T20:26:34.627Z,15.10
2017-05-07T20:29:03.754Z,15.00
2017-05-07T20:31:32.855Z,14.90
2017-05-07T20:34:01.968Z,14.90
2017-05-07T20:36:31.087Z,14.80
2017-05-07T20:39:00.299Z,14.70
2017-05-07T20:41:29.396Z,14.70
2017-05-07T20:43:58.475Z,14.60
2017-05-07T20:46:27.568Z,14.50
2017-05-07T20:48:56.671Z,14.50
2017-05-07T20:51:25.997Z,14.40
2017-05-07T20:53:55.084Z,14.40
2017-05-07T20:56:25.052Z,14.30
2017-05-07T20:58:54.155Z,14.30
2017-05-07T21:01:23.688Z,14.30
2017-05-07T21:03:53.575Z,14.10
2017-05-07T21:06:22.644Z,14.10
2017-05-07T21:08:51.773Z,14.10
2017-05-07T21:11:20.885Z,14.10
2017-05-07T21:13:50.121Z,14.00
2017-05-07T21:16:19.204Z,14.00
2017-05-07T21:18:48.315Z,13.90
2017-05-07T21:21:17.404Z,13.90
2017-05-07T21:23:46.603Z,13.90
2017-05-07T21:26:15.802Z,13.80
2017-05-07T21:28:45.223Z,13.80
2017-05-07T21:31:14.522Z,13.80
2017-05-07T21:33:43.619Z,13.70
2017-05-07T21:36:13.098Z,13.70
2017-05-07T21:38:42.189Z,13.70
2017-05-07T21:41:11.290Z,13.60
2017-05-07T21:43:40.404Z,13.60
2017-05-07T21:46:09.474Z,13.60
2017-05-07T21:48:38.558Z,13.50
2017-05-07T21:51:07.614Z,13.50
2017-05-07T21:53:36.814Z,13.40
2017-05-07T21:56:06.052Z,13.30
2017-05-07T21:58:35.127Z,13.30
2017-05-07T22:01:04.973Z,13.10
2017-05-07T22:03:34.035Z,13.10
2017-05-07T22:06:03.151Z,13.10
2017-05-07T22:08:32.211Z,13.00
2017-05-07T22:11:01.396Z,13.00
2017-05-07T22:13:30.460Z,12.90
2017-05-07T22:15:59.522Z,12.80
2017-05-07T22:18:28.629Z,12.80
2017-05-07T22:20:57.688Z,12.70
2017-05-07T22:23:27.527Z,12.60
2017-05-07T22:25:56.596Z,12.60
2017-05-07T22:28:25.667Z,12.60
2017-05-07T22:30:54.755Z,12.50
2017-05-07T22:33:23.952Z,12.50
2017-05-07T22:35:53.042Z,12.40
2017-05-07T22:38:22.110Z,12.40
2017-05-07T22:40:51.200Z,12.30
2017-05-07T22:43:20.277Z,12.30
2017-05-07T22:45:50.194Z,12.20
2017-05-07T22:48:19.254Z,12.20
2017-05-07T22:50:48.308Z,12.10
2017-05-07T22:53:17.388Z,12.10
2017-05-07T22:55:46.582Z,12.00
2017-05-07T22:58:15.875Z,12.00
2017-05-07T23:00:44.940Z,11.90
2017-05-07T23:03:14.842Z,11.80
2017-05-07T23:05:43.932Z,11.80
2017-05-07T23:08:12.995Z,11.70
2017-05-07T23:10:42.067Z,11.60
2017-05-07T23:13:11.138Z,11.60
2017-05-07T23:15:40.458Z,11.50
2017-05-07T23:18:10.267Z,11.40
2017-05-07T23:20:39.335Z,11.40
2017-05-07T23:23:08.421Z,11.30
2017-05-07T23:25:37.471Z,11.30
2017-05-07T23:28:06.595Z,11.20
2017-05-07T23:30:35.776Z,11.20
2017-05-07T23:33:05.185Z,11.10
2017-05-07T23:35:34.282Z,11.10
2017-05-07T23:38:03.352Z,11.00
2017-05-07T23:40:32.465Z,10.90
2017-05-07T23:43:01.523Z,10.80
2017-05-07T23:45:30.630Z,10.80
2017-05-07T23:48:00.423Z,10.70
2017-05-07T23:50:29.628Z,10.60
2017-05-07T23:52:58.691Z,10.60
2017-05-07T23:55:27.775Z,10.50
2017-05-07T23:57:56.903Z,10.50
